sensor_id;sensor_type;location;lat;lon;timestamp;P1;durP1;ratioP1;P2;durP2;ratioP2
3217;SDS011;1621;49.702;8.618;2024-02-23T00:02:10;3.73;;;1.27;;
3217;SDS011;1621;49.702;8.618;2024-02-23T00:04:37;3.50;;;1.10;;
3217;SDS011;1621;49.702;8.618;2024-02-23T00:07:03;3.40;;;1.27;;
3217;SDS011;1621;49.702;8.618;2024-02-23T00:09:30;3.47;;;1.33;;
3217;SDS011;1621;49.702;8.618;2024-02-23T00:11:57;4.47;;;1.10;;
3217;SDS011;1621;49.702;8.618;2024-02-23T00:14:23;3.43;;;1.20;;
3217;SDS011;1621;49.702;8.618;2024-02-23T00:16:49;3.27;;;0.90;;
3217;SDS011;1621;49.702;8.618;2024-02-23T00:19:16;3.10;;;1.23;;
3217;SDS011;1621;49.702;8.618;2024-02-23T00:21:43;3.90;;;1.00;;
3217;SDS011;1621;49.702;8.618;2024-02-23T00:24:14;2.50;;;1.00;;
3217;SDS011;1621;49.702;8.618;2024-02-23T00:26:42;2.87;;;1.03;;
3217;SDS011;1621;49.702;8.618;2024-02-23T00:29:09;2.90;;;0.90;;
3217;SDS011;1621;49.702;8.618;2024-02-23T00:31:37;2.40;;;1.00;;
3217;SDS011;1621;49.702;8.618;2024-02-23T00:34:03;3.07;;;0.90;;
3217;SDS011;1621;49.702;8.618;2024-02-23T00:36:29;2.17;;;0.73;;
3217;SDS011;1621;49.702;8.618;2024-02-23T00:38:56;2.47;;;0.90;;
3217;SDS011;1621;49.702;8.618;2024-02-23T00:41:22;2.90;;;1.00;;
3217;SDS011;1621;49.702;8.618;2024-02-23T00:43:50;3.00;;;0.80;;
3217;SDS011;1621;49.702;8.618;2024-02-23T00:46:16;3.27;;;1.40;;
3217;SDS011;1621;49.702;8.618;2024-02-23T00:48:42;2.90;;;0.90;;
3217;SDS011;1621;49.702;8.618;2024-02-23T00:51:08;3.23;;;1.00;;
3217;SDS011;1621;49.702;8.618;2024-02-23T00:53:35;6.30;;;0.90;;
3217;SDS011;1621;49.702;8.618;2024-02-23T00:56:01;2.20;;;0.80;;
3217;SDS011;1621;49.702;8.618;2024-02-23T00:58:27;3.20;;;1.33;;
3217;SDS011;1621;49.702;8.618;2024-02-23T01:00:55;2.30;;;0.90;;
3217;SDS011;1621;49.702;8.618;2024-02-23T01:03:21;4.57;;;1.10;;
3217;SDS011;1621;49.702;8.618;2024-02-23T01:05:47;4.47;;;1.10;;
3217;SDS011;1621;49.702;8.618;2024-02-23T01:08:14;4.30;;;1.33;;
3217;SDS011;1621;49.702;8.618;2024-02-23T01:10:40;3.10;;;1.13;;
3217;SDS011;1621;49.702;8.618;2024-02-23T01:13:06;2.57;;;0.90;;
3217;SDS011;1621;49.702;8.618;2024-02-23T01:15:32;2.60;;;1.00;;
3217;SDS011;1621;49.702;8.618;2024-02-23T01:18:00;4.00;;;1.37;;
3217;SDS011;1621;49.702;8.618;2024-02-23T01:20:26;2.83;;;0.90;;
3217;SDS011;1621;49.702;8.618;2024-02-23T01:22:53;3.20;;;1.17;;
3217;SDS011;1621;49.702;8.618;2024-02-23T01:25:19;4.80;;;1.30;;
3217;SDS011;1621;49.702;8.618;2024-02-23T01:27:45;3.77;;;1.37;;
3217;SDS011;1621;49.702;8.618;2024-02-23T01:30:12;2.80;;;1.13;;
3217;SDS011;1621;49.702;8.618;2024-02-23T01:32:38;4.70;;;1.10;;
3217;SDS011;1621;49.702;8.618;2024-02-23T01:35:06;4.33;;;1.40;;
3217;SDS011;1621;49.702;8.618;2024-02-23T01:37:34;5.70;;;1.47;;
3217;SDS011;1621;49.702;8.618;2024-02-23T01:40:00;3.37;;;1.43;;
3217;SDS011;1621;49.702;8.618;2024-02-23T01:42:26;5.50;;;1.20;;
3217;SDS011;1621;49.702;8.618;2024-02-23T01:44:53;4.30;;;1.30;;
3217;SDS011;1621;49.702;8.618;2024-02-23T01:47:21;5.70;;;1.60;;
3217;SDS011;1621;49.702;8.618;2024-02-23T01:49:48;3.20;;;1.20;;
3217;SDS011;1621;49.702;8.618;2024-02-23T01:52:15;4.40;;;1.20;;
3217;SDS011;1621;49.702;8.618;2024-02-23T01:54:41;3.40;;;0.83;;
3217;SDS011;1621;49.702;8.618;2024-02-23T01:57:08;2.40;;;0.90;;
3217;SDS011;1621;49.702;8.618;2024-02-23T01:59:35;3.60;;;1.00;;
3217;SDS011;1621;49.702;8.618;2024-02-23T02:02:02;2.27;;;0.70;;
3217;SDS011;1621;49.702;8.618;2024-02-23T02:04:29;2.50;;;0.67;;
3217;SDS011;1621;49.702;8.618;2024-02-23T02:06:55;5.03;;;1.03;;
3217;SDS011;1621;49.702;8.618;2024-02-23T02:09:23;2.20;;;0.77;;
3217;SDS011;1621;49.702;8.618;2024-02-23T02:11:49;2.00;;;0.73;;
3217;SDS011;1621;49.702;8.618;2024-02-23T02:14:16;2.43;;;0.83;;
3217;SDS011;1621;49.702;8.618;2024-02-23T02:16:42;1.90;;;0.70;;
3217;SDS011;1621;49.702;8.618;2024-02-23T02:19:09;2.50;;;0.70;;
3217;SDS011;1621;49.702;8.618;2024-02-23T02:21:36;1.90;;;0.60;;
3217;SDS011;1621;49.702;8.618;2024-02-23T02:24:03;2.77;;;0.73;;
3217;SDS011;1621;49.702;8.618;2024-02-23T02:26:30;1.90;;;0.70;;
3217;SDS011;1621;49.702;8.618;2024-02-23T02:28:57;2.90;;;1.30;;
3217;SDS011;1621;49.702;8.618;2024-02-23T02:31:23;1.93;;;0.70;;
3217;SDS011;1621;49.702;8.618;2024-02-23T02:33:49;2.33;;;0.70;;
3217;SDS011;1621;49.702;8.618;2024-02-23T02:36:16;4.10;;;0.83;;
3217;SDS011;1621;49.702;8.618;2024-02-23T02:38:42;2.00;;;0.70;;
3217;SDS011;1621;49.702;8.618;2024-02-23T02:41:08;1.87;;;0.67;;
3217;SDS011;1621;49.702;8.618;2024-02-23T02:43:36;3.40;;;1.00;;
3217;SDS011;1621;49.702;8.618;2024-02-23T02:46:02;2.40;;;0.80;;
3217;SDS011;1621;49.702;8.618;2024-02-23T02:48:28;6.30;;;1.10;;
3217;SDS011;1621;49.702;8.618;2024-02-23T02:50:55;3.40;;;0.97;;
3217;SDS011;1621;49.702;8.618;2024-02-23T02:53:21;5.63;;;1.17;;
3217;SDS011;1621;49.702;8.618;2024-02-23T02:55:47;3.60;;;1.17;;
3217;SDS011;1621;49.702;8.618;2024-02-23T02:58:13;3.27;;;1.20;;
3217;SDS011;1621;49.702;8.618;2024-02-23T03:00:41;4.60;;;1.40;;
3217;SDS011;1621;49.702;8.618;2024-02-23T03:03:08;3.57;;;1.13;;
3217;SDS011;1621;49.702;8.618;2024-02-23T03:05:34;4.63;;;1.20;;
3217;SDS011;1621;49.702;8.618;2024-02-23T03:08:00;4.00;;;1.17;;
3217;SDS011;1621;49.702;8.618;2024-02-23T03:10:27;4.97;;;0.93;;
3217;SDS011;1621;49.702;8.618;2024-02-23T03:12:53;4.50;;;1.10;;
3217;SDS011;1621;49.702;8.618;2024-02-23T03:15:20;3.30;;;1.20;;
3217;SDS011;1621;49.702;8.618;2024-02-23T03:17:47;3.37;;;0.70;;
3217;SDS011;1621;49.702;8.618;2024-02-23T03:20:15;3.37;;;1.30;;
3217;SDS011;1621;49.702;8.618;2024-02-23T03:22:41;3.60;;;1.10;;
3217;SDS011;1621;49.702;8.618;2024-02-23T03:25:08;3.47;;;1.20;;
3217;SDS011;1621;49.702;8.618;2024-02-23T03:27:35;3.93;;;0.90;;
3217;SDS011;1621;49.702;8.618;2024-02-23T03:30:02;4.20;;;1.03;;
3217;SDS011;1621;49.702;8.618;2024-02-23T03:32:29;2.70;;;1.00;;
3217;SDS011;1621;49.702;8.618;2024-02-23T03:34:57;3.17;;;1.50;;
3217;SDS011;1621;49.702;8.618;2024-02-23T03:37:23;2.83;;;1.10;;
3217;SDS011;1621;49.702;8.618;2024-02-23T03:39:50;4.97;;;1.00;;
3217;SDS011;1621;49.702;8.618;2024-02-23T03:42:16;2.77;;;0.80;;
3217;SDS011;1621;49.702;8.618;2024-02-23T03:44:42;3.87;;;1.17;;
3217;SDS011;1621;49.702;8.618;2024-02-23T03:47:08;3.57;;;1.10;;
3217;SDS011;1621;49.702;8.618;2024-02-23T03:49:35;4.00;;;1.27;;
3217;SDS011;1621;49.702;8.618;2024-02-23T03:52:03;4.37;;;1.30;;
3217;SDS011;1621;49.702;8.618;2024-02-23T03:54:30;3.80;;;1.03;;
3217;SDS011;1621;49.702;8.618;2024-02-23T03:56:56;2.70;;;0.90;;
3217;SDS011;1621;49.702;8.618;2024-02-23T03:59:22;4.37;;;0.97;;
3217;SDS011;1621;49.702;8.618;2024-02-23T04:01:48;3.43;;;1.20;;
3217;SDS011;1621;49.702;8.618;2024-02-23T04:04:15;5.23;;;1.03;;
3217;SDS011;1621;49.702;8.618;2024-02-23T04:06:41;3.53;;;1.07;;
3217;SDS011;1621;49.702;8.618;2024-02-23T04:09:09;4.23;;;1.10;;
3217;SDS011;1621;49.702;8.618;2024-02-23T04:11:35;4.60;;;1.40;;
3217;SDS011;1621;49.702;8.618;2024-02-23T04:14:01;5.70;;;1.20;;
3217;SDS011;1621;49.702;8.618;2024-02-23T04:16:30;3.90;;;1.30;;
3217;SDS011;1621;49.702;8.618;2024-02-23T04:18:56;6.13;;;1.63;;
3217;SDS011;1621;49.702;8.618;2024-02-23T04:21:24;3.10;;;1.23;;
3217;SDS011;1621;49.702;8.618;2024-02-23T04:23:50;3.53;;;1.17;;
3217;SDS011;1621;49.702;8.618;2024-02-23T04:26:18;3.43;;;1.20;;
3217;SDS011;1621;49.702;8.618;2024-02-23T04:28:44;3.07;;;1.33;;
3217;SDS011;1621;49.702;8.618;2024-02-23T04:31:10;4.03;;;1.10;;
3217;SDS011;1621;49.702;8.618;2024-02-23T04:33:37;3.40;;;0.90;;
3217;SDS011;1621;49.702;8.618;2024-02-23T04:36:04;3.70;;;1.37;;
3217;SDS011;1621;49.702;8.618;2024-02-23T04:38:30;5.07;;;1.10;;
3217;SDS011;1621;49.702;8.618;2024-02-23T04:40:57;3.07;;;1.00;;
3217;SDS011;1621;49.702;8.618;2024-02-23T04:43:25;3.30;;;1.07;;
3217;SDS011;1621;49.702;8.618;2024-02-23T04:45:51;3.17;;;0.90;;
3217;SDS011;1621;49.702;8.618;2024-02-23T04:48:17;3.40;;;1.23;;
3217;SDS011;1621;49.702;8.618;2024-02-23T04:50:44;4.07;;;1.40;;
3217;SDS011;1621;49.702;8.618;2024-02-23T04:53:10;6.17;;;1.40;;
3217;SDS011;1621;49.702;8.618;2024-02-23T04:55:36;4.50;;;1.30;;
3217;SDS011;1621;49.702;8.618;2024-02-23T04:58:02;4.97;;;1.47;;
3217;SDS011;1621;49.702;8.618;2024-02-23T05:00:30;5.30;;;1.10;;
3217;SDS011;1621;49.702;8.618;2024-02-23T05:02:58;3.70;;;1.50;;
3217;SDS011;1621;49.702;8.618;2024-02-23T05:05:24;3.33;;;1.20;;
3217;SDS011;1621;49.702;8.618;2024-02-23T05:07:51;3.50;;;1.30;;
3217;SDS011;1621;49.702;8.618;2024-02-23T05:10:17;6.60;;;1.27;;
3217;SDS011;1621;49.702;8.618;2024-02-23T05:12:44;4.40;;;1.40;;
3217;SDS011;1621;49.702;8.618;2024-02-23T05:15:10;4.73;;;1.50;;
3217;SDS011;1621;49.702;8.618;2024-02-23T05:17:38;4.23;;;1.10;;
3217;SDS011;1621;49.702;8.618;2024-02-23T05:20:05;3.77;;;1.30;;
3217;SDS011;1621;49.702;8.618;2024-02-23T05:22:33;3.90;;;1.30;;
3217;SDS011;1621;49.702;8.618;2024-02-23T05:24:59;4.17;;;1.30;;
3217;SDS011;1621;49.702;8.618;2024-02-23T05:27:26;4.40;;;1.60;;
3217;SDS011;1621;49.702;8.618;2024-02-23T05:29:52;3.00;;;1.20;;
3217;SDS011;1621;49.702;8.618;2024-02-23T05:32:18;3.20;;;1.27;;
3217;SDS011;1621;49.702;8.618;2024-02-23T05:34:46;3.50;;;1.40;;
3217;SDS011;1621;49.702;8.618;2024-02-23T05:37:16;3.70;;;1.20;;
3217;SDS011;1621;49.702;8.618;2024-02-23T05:39:42;5.10;;;2.33;;
3217;SDS011;1621;49.702;8.618;2024-02-23T05:42:09;4.67;;;1.43;;
3217;SDS011;1621;49.702;8.618;2024-02-23T05:44:35;7.50;;;1.40;;
3217;SDS011;1621;49.702;8.618;2024-02-23T05:47:02;5.30;;;1.40;;
3217;SDS011;1621;49.702;8.618;2024-02-23T05:49:28;5.60;;;1.93;;
3217;SDS011;1621;49.702;8.618;2024-02-23T05:51:56;3.17;;;1.10;;
3217;SDS011;1621;49.702;8.618;2024-02-23T05:54:22;5.13;;;1.50;;
3217;SDS011;1621;49.702;8.618;2024-02-23T05:56:48;7.10;;;1.30;;
3217;SDS011;1621;49.702;8.618;2024-02-23T05:59:14;7.73;;;1.93;;
3217;SDS011;1621;49.702;8.618;2024-02-23T06:01:41;8.33;;;1.57;;
3217;SDS011;1621;49.702;8.618;2024-02-23T06:04:07;6.53;;;2.03;;
3217;SDS011;1621;49.702;8.618;2024-02-23T06:06:37;5.70;;;1.50;;
3217;SDS011;1621;49.702;8.618;2024-02-23T06:09:04;3.67;;;1.50;;
3217;SDS011;1621;49.702;8.618;2024-02-23T06:11:30;3.73;;;1.33;;
3217;SDS011;1621;49.702;8.618;2024-02-23T06:13:57;4.90;;;1.50;;
3217;SDS011;1621;49.702;8.618;2024-02-23T06:16:23;2.80;;;1.17;;
3217;SDS011;1621;49.702;8.618;2024-02-23T06:18:49;7.20;;;1.60;;
3217;SDS011;1621;49.702;8.618;2024-02-23T06:21:16;5.97;;;1.53;;
3217;SDS011;1621;49.702;8.618;2024-02-23T06:23:42;3.00;;;1.20;;
3217;SDS011;1621;49.702;8.618;2024-02-23T06:26:10;5.73;;;1.90;;
3217;SDS011;1621;49.702;8.618;2024-02-23T06:28:37;5.40;;;1.60;;
3217;SDS011;1621;49.702;8.618;2024-02-23T06:31:03;4.47;;;1.40;;
3217;SDS011;1621;49.702;8.618;2024-02-23T06:33:30;9.27;;;2.30;;
3217;SDS011;1621;49.702;8.618;2024-02-23T06:35:56;4.10;;;1.30;;
3217;SDS011;1621;49.702;8.618;2024-02-23T06:38:23;8.30;;;2.00;;
3217;SDS011;1621;49.702;8.618;2024-02-23T06:40:49;5.97;;;1.43;;
3217;SDS011;1621;49.702;8.618;2024-02-23T06:43:16;3.63;;;1.10;;
3217;SDS011;1621;49.702;8.618;2024-02-23T06:45:43;3.90;;;1.40;;
3217;SDS011;1621;49.702;8.618;2024-02-23T06:48:09;4.33;;;1.37;;
3217;SDS011;1621;49.702;8.618;2024-02-23T06:50:35;4.80;;;1.60;;
3217;SDS011;1621;49.702;8.618;2024-02-23T06:53:02;3.80;;;1.40;;
3217;SDS011;1621;49.702;8.618;2024-02-23T06:55:28;6.17;;;1.37;;
3217;SDS011;1621;49.702;8.618;2024-02-23T06:57:54;5.13;;;1.70;;
3217;SDS011;1621;49.702;8.618;2024-02-23T07:00:22;8.43;;;2.17;;
3217;SDS011;1621;49.702;8.618;2024-02-23T07:02:48;4.37;;;1.10;;
3217;SDS011;1621;49.702;8.618;2024-02-23T07:05:14;3.90;;;1.50;;
3217;SDS011;1621;49.702;8.618;2024-02-23T07:07:41;5.23;;;1.83;;
3217;SDS011;1621;49.702;8.618;2024-02-23T07:10:08;3.20;;;1.30;;
3217;SDS011;1621;49.702;8.618;2024-02-23T07:12:35;3.77;;;1.30;;
3217;SDS011;1621;49.702;8.618;2024-02-23T07:15:02;5.00;;;1.90;;
3217;SDS011;1621;49.702;8.618;2024-02-23T07:17:29;6.13;;;1.80;;
3217;SDS011;1621;49.702;8.618;2024-02-23T07:19:55;4.43;;;1.50;;
3217;SDS011;1621;49.702;8.618;2024-02-23T07:22:29;4.17;;;1.70;;
3217;SDS011;1621;49.702;8.618;2024-02-23T07:24:56;4.57;;;1.40;;
3217;SDS011;1621;49.702;8.618;2024-02-23T07:27:22;5.20;;;1.67;;
3217;SDS011;1621;49.702;8.618;2024-02-23T07:29:48;6.27;;;3.53;;
3217;SDS011;1621;49.702;8.618;2024-02-23T07:32:14;10.40;;;5.70;;
3217;SDS011;1621;49.702;8.618;2024-02-23T07:34:42;7.17;;;3.93;;
3217;SDS011;1621;49.702;8.618;2024-02-23T07:37:08;6.40;;;3.00;;
3217;SDS011;1621;49.702;8.618;2024-02-23T07:39:35;4.53;;;2.00;;
3217;SDS011;1621;49.702;8.618;2024-02-23T07:42:01;4.17;;;1.73;;
3217;SDS011;1621;49.702;8.618;2024-02-23T07:44:28;4.97;;;1.97;;
3217;SDS011;1621;49.702;8.618;2024-02-23T07:46:54;5.43;;;1.50;;
3217;SDS011;1621;49.702;8.618;2024-02-23T07:49:20;4.30;;;1.40;;
3217;SDS011;1621;49.702;8.618;2024-02-23T07:51:49;6.50;;;1.60;;
3217;SDS011;1621;49.702;8.618;2024-02-23T07:54:15;5.70;;;1.70;;
3217;SDS011;1621;49.702;8.618;2024-02-23T07:56:41;5.83;;;1.80;;
3217;SDS011;1621;49.702;8.618;2024-02-23T07:59:07;4.47;;;1.73;;
3217;SDS011;1621;49.702;8.618;2024-02-23T08:01:33;9.47;;;1.67;;
3217;SDS011;1621;49.702;8.618;2024-02-23T08:04:00;7.90;;;1.93;;
3217;SDS011;1621;49.702;8.618;2024-02-23T08:06:26;4.10;;;1.47;;
3217;SDS011;1621;49.702;8.618;2024-02-23T08:08:54;5.30;;;1.40;;
3217;SDS011;1621;49.702;8.618;2024-02-23T08:11:20;4.87;;;1.80;;
3217;SDS011;1621;49.702;8.618;2024-02-23T08:13:46;6.97;;;1.97;;
3217;SDS011;1621;49.702;8.618;2024-02-23T08:16:12;7.40;;;1.60;;
3217;SDS011;1621;49.702;8.618;2024-02-23T08:18:39;5.33;;;1.40;;
3217;SDS011;1621;49.702;8.618;2024-02-23T08:21:05;7.93;;;1.77;;
3217;SDS011;1621;49.702;8.618;2024-02-23T08:23:32;5.70;;;1.70;;
3217;SDS011;1621;49.702;8.618;2024-02-23T08:26:00;9.00;;;1.83;;
3217;SDS011;1621;49.702;8.618;2024-02-23T08:28:26;4.43;;;1.63;;
3217;SDS011;1621;49.702;8.618;2024-02-23T08:30:52;7.53;;;2.10;;
3217;SDS011;1621;49.702;8.618;2024-02-23T08:33:19;7.10;;;1.87;;
3217;SDS011;1621;49.702;8.618;2024-02-23T08:35:45;7.13;;;1.57;;
3217;SDS011;1621;49.702;8.618;2024-02-23T08:38:13;5.77;;;1.90;;
3217;SDS011;1621;49.702;8.618;2024-02-23T08:40:39;4.50;;;1.80;;
3217;SDS011;1621;49.702;8.618;2024-02-23T08:43:08;4.87;;;1.63;;
3217;SDS011;1621;49.702;8.618;2024-02-23T08:45:34;9.83;;;1.90;;
3217;SDS011;1621;49.702;8.618;2024-02-23T08:48:00;6.87;;;2.00;;
3217;SDS011;1621;49.702;8.618;2024-02-23T08:50:28;6.10;;;2.20;;
3217;SDS011;1621;49.702;8.618;2024-02-23T08:52:54;5.60;;;1.90;;
3217;SDS011;1621;49.702;8.618;2024-02-23T08:55:20;4.70;;;1.60;;
3217;SDS011;1621;49.702;8.618;2024-02-23T08:57:47;7.57;;;1.80;;
3217;SDS011;1621;49.702;8.618;2024-02-23T09:00:15;10.00;;;2.20;;
3217;SDS011;1621;49.702;8.618;2024-02-23T09:02:41;8.90;;;1.80;;
3217;SDS011;1621;49.702;8.618;2024-02-23T09:05:08;9.97;;;2.10;;
3217;SDS011;1621;49.702;8.618;2024-02-23T09:07:34;4.33;;;1.53;;
3217;SDS011;1621;49.702;8.618;2024-02-23T09:10:00;5.00;;;1.63;;
3217;SDS011;1621;49.702;8.618;2024-02-23T09:12:29;7.30;;;2.43;;
3217;SDS011;1621;49.702;8.618;2024-02-23T09:14:55;3.57;;;1.47;;
3217;SDS011;1621;49.702;8.618;2024-02-23T09:17:22;4.10;;;1.37;;
3217;SDS011;1621;49.702;8.618;2024-02-23T09:19:50;7.47;;;1.87;;
3217;SDS011;1621;49.702;8.618;2024-02-23T09:22:16;12.97;;;1.87;;
3217;SDS011;1621;49.702;8.618;2024-02-23T09:24:43;4.80;;;1.80;;
3217;SDS011;1621;49.702;8.618;2024-02-23T09:27:09;5.50;;;2.07;;
3217;SDS011;1621;49.702;8.618;2024-02-23T09:29:35;6.50;;;1.70;;
3217;SDS011;1621;49.702;8.618;2024-02-23T09:32:02;7.00;;;1.80;;
3217;SDS011;1621;49.702;8.618;2024-02-23T09:34:29;4.10;;;1.93;;
3217;SDS011;1621;49.702;8.618;2024-02-23T09:36:55;7.00;;;1.87;;
3217;SDS011;1621;49.702;8.618;2024-02-23T09:39:22;5.87;;;1.77;;
3217;SDS011;1621;49.702;8.618;2024-02-23T09:41:51;7.10;;;1.70;;
3217;SDS011;1621;49.702;8.618;2024-02-23T09:44:17;6.03;;;2.40;;
3217;SDS011;1621;49.702;8.618;2024-02-23T09:46:45;9.33;;;2.57;;
3217;SDS011;1621;49.702;8.618;2024-02-23T09:49:12;5.60;;;1.60;;
3217;SDS011;1621;49.702;8.618;2024-02-23T09:51:39;6.80;;;1.90;;
3217;SDS011;1621;49.702;8.618;2024-02-23T09:54:06;5.43;;;1.63;;
3217;SDS011;1621;49.702;8.618;2024-02-23T09:56:32;4.83;;;1.60;;
3217;SDS011;1621;49.702;8.618;2024-02-23T09:59:02;6.67;;;1.60;;
3217;SDS011;1621;49.702;8.618;2024-02-23T10:01:29;5.50;;;1.57;;
3217;SDS011;1621;49.702;8.618;2024-02-23T10:03:56;5.20;;;1.47;;
3217;SDS011;1621;49.702;8.618;2024-02-23T10:06:23;6.10;;;1.53;;
3217;SDS011;1621;49.702;8.618;2024-02-23T10:08:51;7.17;;;1.50;;
3217;SDS011;1621;49.702;8.618;2024-02-23T10:11:17;9.20;;;2.03;;
3217;SDS011;1621;49.702;8.618;2024-02-23T10:13:44;6.90;;;2.10;;
3217;SDS011;1621;49.702;8.618;2024-02-23T10:16:10;5.20;;;1.70;;
3217;SDS011;1621;49.702;8.618;2024-02-23T10:18:37;8.10;;;2.60;;
3217;SDS011;1621;49.702;8.618;2024-02-23T10:21:04;5.03;;;2.10;;
3217;SDS011;1621;49.702;8.618;2024-02-23T10:23:30;9.03;;;2.30;;
3217;SDS011;1621;49.702;8.618;2024-02-23T10:25:58;5.37;;;1.87;;
3217;SDS011;1621;49.702;8.618;2024-02-23T10:28:24;5.80;;;1.47;;
3217;SDS011;1621;49.702;8.618;2024-02-23T10:30:50;4.33;;;1.60;;
3217;SDS011;1621;49.702;8.618;2024-02-23T10:33:17;4.90;;;1.70;;
3217;SDS011;1621;49.702;8.618;2024-02-23T10:35:44;6.17;;;1.80;;
3217;SDS011;1621;49.702;8.618;2024-02-23T10:38:12;3.83;;;1.53;;
3217;SDS011;1621;49.702;8.618;2024-02-23T10:40:40;7.70;;;1.87;;
3217;SDS011;1621;49.702;8.618;2024-02-23T10:43:10;6.57;;;1.67;;
3217;SDS011;1621;49.702;8.618;2024-02-23T10:45:37;5.17;;;1.57;;
3217;SDS011;1621;49.702;8.618;2024-02-23T10:48:05;6.13;;;1.40;;
3217;SDS011;1621;49.702;8.618;2024-02-23T10:50:32;6.90;;;1.83;;
3217;SDS011;1621;49.702;8.618;2024-02-23T10:52:59;4.57;;;1.80;;
3217;SDS011;1621;49.702;8.618;2024-02-23T10:55:26;4.07;;;1.93;;
3217;SDS011;1621;49.702;8.618;2024-02-23T10:57:53;6.77;;;1.70;;
3217;SDS011;1621;49.702;8.618;2024-02-23T11:00:22;7.80;;;2.20;;
3217;SDS011;1621;49.702;8.618;2024-02-23T11:02:50;4.93;;;1.90;;
3217;SDS011;1621;49.702;8.618;2024-02-23T11:05:17;4.27;;;1.57;;
3217;SDS011;1621;49.702;8.618;2024-02-23T11:07:46;8.27;;;1.53;;
3217;SDS011;1621;49.702;8.618;2024-02-23T11:10:14;9.60;;;1.97;;
3217;SDS011;1621;49.702;8.618;2024-02-23T11:12:40;6.90;;;1.53;;
3217;SDS011;1621;49.702;8.618;2024-02-23T11:15:07;5.23;;;1.73;;
3217;SDS011;1621;49.702;8.618;2024-02-23T11:17:35;5.50;;;1.80;;
3217;SDS011;1621;49.702;8.618;2024-02-23T11:20:02;4.83;;;1.30;;
3217;SDS011;1621;49.702;8.618;2024-02-23T11:22:30;6.03;;;2.50;;
3217;SDS011;1621;49.702;8.618;2024-02-23T11:24:59;9.33;;;2.30;;
3217;SDS011;1621;49.702;8.618;2024-02-23T11:27:29;3.87;;;1.40;;
3217;SDS011;1621;49.702;8.618;2024-02-23T11:29:58;6.17;;;1.50;;
3217;SDS011;1621;49.702;8.618;2024-02-23T11:32:34;9.23;;;2.17;;
3217;SDS011;1621;49.702;8.618;2024-02-23T11:35:02;6.67;;;2.00;;
3217;SDS011;1621;49.702;8.618;2024-02-23T11:37:30;3.10;;;1.30;;
3217;SDS011;1621;49.702;8.618;2024-02-23T11:39:56;6.00;;;1.80;;
3217;SDS011;1621;49.702;8.618;2024-02-23T11:42:23;6.43;;;1.80;;
3217;SDS011;1621;49.702;8.618;2024-02-23T11:44:49;8.13;;;2.00;;
3217;SDS011;1621;49.702;8.618;2024-02-23T11:47:16;5.23;;;1.60;;
3217;SDS011;1621;49.702;8.618;2024-02-23T11:49:43;5.17;;;1.60;;
3217;SDS011;1621;49.702;8.618;2024-02-23T11:52:10;4.10;;;1.40;;
3217;SDS011;1621;49.702;8.618;2024-02-23T11:54:37;3.63;;;1.43;;
3217;SDS011;1621;49.702;8.618;2024-02-23T11:57:03;5.10;;;1.70;;
3217;SDS011;1621;49.702;8.618;2024-02-23T11:59:30;5.93;;;2.20;;
3217;SDS011;1621;49.702;8.618;2024-02-23T12:01:56;4.33;;;2.13;;
3217;SDS011;1621;49.702;8.618;2024-02-23T12:04:23;7.57;;;2.13;;
3217;SDS011;1621;49.702;8.618;2024-02-23T12:06:49;4.63;;;1.90;;
3217;SDS011;1621;49.702;8.618;2024-02-23T12:09:17;4.20;;;1.60;;
3217;SDS011;1621;49.702;8.618;2024-02-23T12:11:43;6.40;;;1.93;;
3217;SDS011;1621;49.702;8.618;2024-02-23T12:14:09;4.00;;;1.60;;
3217;SDS011;1621;49.702;8.618;2024-02-23T12:16:36;4.70;;;1.53;;
3217;SDS011;1621;49.702;8.618;2024-02-23T12:19:02;4.03;;;1.40;;
3217;SDS011;1621;49.702;8.618;2024-02-23T12:21:29;6.47;;;1.87;;
3217;SDS011;1621;49.702;8.618;2024-02-23T12:23:55;5.20;;;1.67;;
3217;SDS011;1621;49.702;8.618;2024-02-23T12:26:22;4.03;;;1.53;;
3217;SDS011;1621;49.702;8.618;2024-02-23T12:28:49;6.43;;;1.90;;
3217;SDS011;1621;49.702;8.618;2024-02-23T12:31:15;4.80;;;1.60;;
3217;SDS011;1621;49.702;8.618;2024-02-23T12:33:41;4.30;;;1.70;;
3217;SDS011;1621;49.702;8.618;2024-02-23T12:36:13;4.40;;;1.67;;
3217;SDS011;1621;49.702;8.618;2024-02-23T12:38:39;5.90;;;1.60;;
3217;SDS011;1621;49.702;8.618;2024-02-23T12:41:05;4.70;;;1.60;;
3217;SDS011;1621;49.702;8.618;2024-02-23T12:43:33;5.13;;;1.97;;
3217;SDS011;1621;49.702;8.618;2024-02-23T12:45:59;4.80;;;1.93;;
3217;SDS011;1621;49.702;8.618;2024-02-23T12:48:28;3.63;;;1.40;;
3217;SDS011;1621;49.702;8.618;2024-02-23T12:50:54;5.80;;;1.80;;
3217;SDS011;1621;49.702;8.618;2024-02-23T12:53:30;4.57;;;2.10;;
3217;SDS011;1621;49.702;8.618;2024-02-23T12:55:57;4.60;;;1.40;;
3217;SDS011;1621;49.702;8.618;2024-02-23T12:58:23;5.83;;;1.50;;
3217;SDS011;1621;49.702;8.618;2024-02-23T13:00:52;4.97;;;1.70;;
3217;SDS011;1621;49.702;8.618;2024-02-23T13:03:18;6.73;;;1.70;;
3217;SDS011;1621;49.702;8.618;2024-02-23T13:05:44;5.80;;;1.63;;
3217;SDS011;1621;49.702;8.618;2024-02-23T13:08:11;4.10;;;1.47;;
3217;SDS011;1621;49.702;8.618;2024-02-23T13:10:37;4.53;;;1.40;;
3217;SDS011;1621;49.702;8.618;2024-02-23T13:13:03;4.90;;;1.10;;
3217;SDS011;1621;49.702;8.618;2024-02-23T13:15:30;3.93;;;1.53;;
3217;SDS011;1621;49.702;8.618;2024-02-23T13:17:57;4.30;;;1.57;;
3217;SDS011;1621;49.702;8.618;2024-02-23T13:20:24;4.10;;;1.17;;
3217;SDS011;1621;49.702;8.618;2024-02-23T13:22:50;3.60;;;1.27;;
3217;SDS011;1621;49.702;8.618;2024-02-23T13:25:17;4.20;;;1.40;;
3217;SDS011;1621;49.702;8.618;2024-02-23T13:27:43;4.40;;;1.33;;
3217;SDS011;1621;49.702;8.618;2024-02-23T13:30:09;3.43;;;1.00;;
3217;SDS011;1621;49.702;8.618;2024-02-23T13:32:37;5.37;;;1.63;;
3217;SDS011;1621;49.702;8.618;2024-02-23T13:35:05;3.80;;;1.30;;
3217;SDS011;1621;49.702;8.618;2024-02-23T13:37:31;4.63;;;1.37;;
3217;SDS011;1621;49.702;8.618;2024-02-23T13:39:58;5.00;;;1.83;;
3217;SDS011;1621;49.702;8.618;2024-02-23T13:42:24;4.60;;;1.50;;
3217;SDS011;1621;49.702;8.618;2024-02-23T13:44:50;4.73;;;1.30;;
3217;SDS011;1621;49.702;8.618;2024-02-23T13:47:16;3.77;;;1.53;;
3217;SDS011;1621;49.702;8.618;2024-02-23T13:49:43;4.43;;;1.30;;
3217;SDS011;1621;49.702;8.618;2024-02-23T13:52:11;4.80;;;1.40;;
3217;SDS011;1621;49.702;8.618;2024-02-23T13:54:37;8.40;;;2.20;;
3217;SDS011;1621;49.702;8.618;2024-02-23T13:57:03;3.83;;;1.50;;
3217;SDS011;1621;49.702;8.618;2024-02-23T13:59:29;5.20;;;1.90;;
3217;SDS011;1621;49.702;8.618;2024-02-23T14:01:56;8.60;;;4.20;;
3217;SDS011;1621;49.702;8.618;2024-02-23T14:04:22;11.60;;;3.40;;
3217;SDS011;1621;49.702;8.618;2024-02-23T14:06:48;10.13;;;3.20;;
3217;SDS011;1621;49.702;8.618;2024-02-23T14:09:16;6.70;;;2.30;;
3217;SDS011;1621;49.702;8.618;2024-02-23T14:11:42;4.43;;;2.30;;
3217;SDS011;1621;49.702;8.618;2024-02-23T14:14:10;13.50;;;2.83;;
3217;SDS011;1621;49.702;8.618;2024-02-23T14:16:36;7.67;;;2.17;;
3217;SDS011;1621;49.702;8.618;2024-02-23T14:19:02;5.40;;;1.83;;
3217;SDS011;1621;49.702;8.618;2024-02-23T14:21:29;6.83;;;1.67;;
3217;SDS011;1621;49.702;8.618;2024-02-23T14:23:55;6.70;;;1.70;;
3217;SDS011;1621;49.702;8.618;2024-02-23T14:26:23;8.50;;;1.67;;
3217;SDS011;1621;49.702;8.618;2024-02-23T14:28:49;4.20;;;1.60;;
3217;SDS011;1621;49.702;8.618;2024-02-23T14:31:15;5.00;;;1.87;;
3217;SDS011;1621;49.702;8.618;2024-02-23T14:33:41;4.03;;;1.40;;
3217;SDS011;1621;49.702;8.618;2024-02-23T14:36:08;4.50;;;1.40;;
3217;SDS011;1621;49.702;8.618;2024-02-23T14:38:34;4.00;;;1.43;;
3217;SDS011;1621;49.702;8.618;2024-02-23T14:41:00;4.90;;;1.30;;
3217;SDS011;1621;49.702;8.618;2024-02-23T14:43:28;3.83;;;1.30;;
3217;SDS011;1621;49.702;8.618;2024-02-23T14:45:56;5.43;;;1.20;;
3217;SDS011;1621;49.702;8.618;2024-02-23T14:48:22;4.13;;;1.53;;
3217;SDS011;1621;49.702;8.618;2024-02-23T14:50:48;2.80;;;1.10;;
3217;SDS011;1621;49.702;8.618;2024-02-23T14:53:14;5.50;;;1.53;;
3217;SDS011;1621;49.702;8.618;2024-02-23T14:55:42;4.33;;;1.47;;
3217;SDS011;1621;49.702;8.618;2024-02-23T14:58:08;4.17;;;1.40;;
3217;SDS011;1621;49.702;8.618;2024-02-23T15:00:35;4.80;;;1.33;;
3217;SDS011;1621;49.702;8.618;2024-02-23T15:03:02;3.83;;;1.30;;
3217;SDS011;1621;49.702;8.618;2024-02-23T15:05:28;3.80;;;1.27;;
3217;SDS011;1621;49.702;8.618;2024-02-23T15:07:54;3.83;;;1.50;;
3217;SDS011;1621;49.702;8.618;2024-02-23T15:10:21;3.90;;;1.83;;
3217;SDS011;1621;49.702;8.618;2024-02-23T15:12:47;6.00;;;2.10;;